createdAt,value
2024-03-26T00:00:34.957Z,100037.23
2024-03-26T00:01:42.697Z,100034.97
2024-03-26T00:02:48.079Z,100037.23
2024-03-26T00:03:53.467Z,100032.7
2024-03-26T00:04:58.858Z,100038.25
2024-03-26T00:06:04.265Z,100039.17
2024-03-26T00:07:09.681Z,100039.25
2024-03-26T00:08:15.075Z,100035.23
2024-03-26T00:09:20.506Z,100041.08
2024-03-26T00:10:25.910Z,100041.93
2024-03-26T00:11:31.358Z,100043.68
2024-03-26T00:12:36.764Z,100041
2024-03-26T00:13:42.190Z,100033.82
2024-03-26T00:14:47.608Z,100038.41
2024-03-26T00:15:53.009Z,100036.17
2024-03-26T00:16:58.408Z,100034.23
2024-03-26T00:18:03.836Z,100037.39
2024-03-26T00:19:09.235Z,100033.48
2024-03-26T00:20:14.693Z,100033.23
2024-03-26T00:21:23.002Z,100034.98
2024-03-26T00:22:28.408Z,100033.31
2024-03-26T00:23:33.883Z,100034.84
2024-03-26T00:24:39.287Z,100033.91
2024-03-26T00:25:44.667Z,100035.73
2024-03-26T00:26:50.038Z,100032.66
2024-03-26T00:27:55.445Z,100033.99
2024-03-26T00:29:00.867Z,100036.19
2024-03-26T00:30:06.321Z,100028.16
2024-03-26T00:31:11.726Z,100035.06
2024-03-26T00:32:17.119Z,100028.38
2024-03-26T00:33:22.512Z,100040.53
2024-03-26T00:34:27.976Z,100030.39
2024-03-26T00:35:33.444Z,100037.52
2024-03-26T00:36:38.835Z,100031.84
2024-03-26T00:37:44.283Z,100032.41
2024-03-26T00:38:49.681Z,100027.97
2024-03-26T00:39:55.064Z,100028.05
2024-03-26T00:41:00.473Z,100035.67
2024-03-26T00:42:05.903Z,100028.16
2024-03-26T00:43:11.295Z,100029.06
2024-03-26T00:44:16.674Z,100040.54
2024-03-26T00:45:22.074Z,100036.34
2024-03-26T00:46:27.493Z,100035.93
2024-03-26T00:47:32.965Z,100036.94
2024-03-26T00:48:38.393Z,100030.24
2024-03-26T00:49:43.797Z,100037.95
2024-03-26T00:50:49.212Z,100034.86
2024-03-26T00:51:54.636Z,100032.74
2024-03-26T00:53:00.026Z,100037.77
2024-03-26T00:54:05.436Z,100039.88
2024-03-26T00:55:10.878Z,100029.58
2024-03-26T00:56:16.324Z,100024.23
2024-03-26T00:57:21.789Z,100025.05
2024-03-26T00:58:27.229Z,100023.37
2024-03-26T00:59:32.615Z,100029.66
2024-03-26T01:00:38.011Z,100028.92
2024-03-26T01:01:43.427Z,100035.86
2024-03-26T01:02:48.831Z,100033.67
2024-03-26T01:03:54.217Z,100038.21
2024-03-26T01:04:59.639Z,100035.53
2024-03-26T01:06:05.002Z,100035.86
2024-03-26T01:07:10.410Z,100028.32
2024-03-26T01:08:15.843Z,100023.81
2024-03-26T01:09:21.228Z,100024.3
2024-03-26T01:10:26.619Z,100031
2024-03-26T01:11:32.038Z,100030.06
2024-03-26T01:12:37.461Z,100033.59
2024-03-26T01:13:42.861Z,100035.42
2024-03-26T01:14:48.291Z,100023.81
2024-03-26T01:15:53.674Z,100030.84
2024-03-26T01:16:59.083Z,100030.52
2024-03-26T01:18:04.547Z,100024.71
2024-03-26T01:19:09.938Z,100032.74
2024-03-26T01:20:15.395Z,100022.37
2024-03-26T01:21:24.512Z,100018.54
2024-03-26T01:22:29.915Z,100020.81
2024-03-26T01:23:35.342Z,100024.71
2024-03-26T01:24:40.751Z,100016.8
2024-03-26T01:25:46.165Z,100027.5
2024-03-26T01:26:51.588Z,100037.77
2024-03-26T01:27:56.996Z,100032.41
2024-03-26T01:29:02.451Z,100030.18
2024-03-26T01:30:07.885Z,100024.83
2024-03-26T01:31:13.279Z,100034
2024-03-26T01:32:18.928Z,100029.17
2024-03-26T01:33:24.328Z,100029.33
2024-03-26T01:34:29.741Z,100026.24
2024-03-26T01:35:35.158Z,100023.23
2024-03-26T01:36:40.573Z,100028.33
2024-03-26T01:37:46.006Z,100023.98
2024-03-26T01:38:51.395Z,100022.31
2024-03-26T01:39:56.803Z,100025.1
2024-03-26T01:41:02.197Z,100017.08
2024-03-26T01:42:07.658Z,100022.09
2024-03-26T01:43:13.084Z,100017.08
2024-03-26T01:44:18.470Z,100015.73
2024-03-26T01:45:23.847Z,100013.63
2024-03-26T01:46:29.244Z,100010.87
2024-03-26T01:47:34.638Z,100013.39
2024-03-26T01:48:40.021Z,100018.3
2024-03-26T01:49:45.430Z,100013.06
2024-03-26T01:50:50.800Z,100008.94
2024-03-26T01:51:56.213Z,100016.22
2024-03-26T01:53:01.615Z,100013.55
2024-03-26T01:54:07.052Z,100007.78
2024-03-26T01:55:12.455Z,100006.93
2024-03-26T01:56:17.882Z,100008.05
2024-03-26T01:57:23.345Z,100008.19
2024-03-26T01:58:28.775Z,100011.28
2024-03-26T01:59:34.172Z,100011.2
2024-03-26T02:00:39.583Z,100015.62
2024-03-26T02:01:45.058Z,100014.28
2024-03-26T02:02:50.502Z,100016.3
2024-03-26T02:03:55.916Z,100014.55
2024-03-26T02:05:01.321Z,100015.07
2024-03-26T02:06:06.749Z,100012.28
2024-03-26T02:07:12.130Z,100015.81
2024-03-26T02:08:17.642Z,100010.37
2024-03-26T02:09:23.123Z,100013.22
2024-03-26T02:10:28.540Z,100015.89
2024-03-26T02:11:33.956Z,100016.73
2024-03-26T02:12:39.383Z,100021.5
2024-03-26T02:13:44.805Z,100023.16
2024-03-26T02:14:50.225Z,100020.48
2024-03-26T02:15:55.659Z,100023.77
2024-03-26T02:17:01.074Z,100026.84
2024-03-26T02:18:06.471Z,100032.36
2024-03-26T02:19:11.879Z,100029.27
2024-03-26T02:20:17.295Z,100035.48
2024-03-26T02:21:22.717Z,100034.22
2024-03-26T02:22:28.160Z,100038.05
2024-03-26T02:23:33.571Z,100036.38
2024-03-26T02:24:38.973Z,100036.31
2024-03-26T02:25:44.406Z,100036.72
2024-03-26T02:26:49.855Z,100039.58
2024-03-26T02:27:55.260Z,100040.92
2024-03-26T02:29:00.736Z,100036.38
2024-03-26T02:30:06.164Z,100032.37
2024-03-26T02:31:11.580Z,100039.33
2024-03-26T02:32:16.983Z,100033.16
2024-03-26T02:33:22.381Z,100034.98
2024-03-26T02:34:27.780Z,100034.98
2024-03-26T02:35:33.219Z,100033.48
2024-03-26T02:36:38.652Z,100040.17
2024-03-26T02:37:44.046Z,100040.66
2024-03-26T02:38:49.527Z,100034.38
2024-03-26T02:39:54.982Z,100036.49
2024-03-26T02:41:00.395Z,100038.06
2024-03-26T02:42:05.780Z,100037.66
2024-03-26T02:43:11.174Z,100038.66
2024-03-26T02:44:16.588Z,100034.23
2024-03-26T02:45:22.044Z,100037.58
2024-03-26T02:46:27.448Z,100034.38
2024-03-26T02:47:32.876Z,100023.34
2024-03-26T02:48:38.302Z,100025.12
2024-03-26T02:49:43.686Z,100028.55
2024-03-26T02:50:49.131Z,100032.04
2024-03-26T02:51:54.572Z,100031.88
2024-03-26T02:53:00.034Z,100025.19
2024-03-26T02:54:05.467Z,100024.27
2024-03-26T02:55:10.836Z,100013.63
2024-03-26T02:56:16.268Z,100008.06
2024-03-26T02:57:21.677Z,100017.32
2024-03-26T02:58:27.137Z,100009.88
2024-03-26T02:59:32.684Z,100013.41
2024-03-26T03:00:38.098Z,100015.23
2024-03-26T03:01:43.532Z,100014.83
2024-03-26T03:02:48.967Z,100014.91
2024-03-26T03:03:54.423Z,100014.83
2024-03-26T03:04:59.809Z,100017.84
2024-03-26T03:06:05.349Z,100022.78
2024-03-26T03:07:10.740Z,100017.91
2024-03-26T03:08:16.163Z,100022.61
2024-03-26T03:09:21.601Z,100017.33
2024-03-26T03:10:27.023Z,100010.97
2024-03-26T03:11:32.404Z,100014.98
2024-03-26T03:12:37.818Z,100007.47
2024-03-26T03:13:43.242Z,100009.63
2024-03-26T03:14:48.732Z,100007.8
2024-03-26T03:15:54.176Z,100006.95
2024-03-26T03:16:59.572Z,100010.08
2024-03-26T03:18:04.962Z,100006.95
2024-03-26T03:19:10.409Z,99998.11
2024-03-26T03:20:15.853Z,100010.64
2024-03-26T03:21:21.253Z,100009.9
2024-03-26T03:22:26.663Z,100012.65
2024-03-26T03:23:32.055Z,100014.51
2024-03-26T03:24:37.481Z,100020.27
2024-03-26T03:25:42.895Z,100011.83
2024-03-26T03:26:48.346Z,100014.51
2024-03-26T03:27:53.768Z,100020.45
2024-03-26T03:28:59.165Z,100017.45
2024-03-26T03:30:04.591Z,100015.19
2024-03-26T03:31:09.987Z,100018.38
2024-03-26T03:32:15.438Z,100027.82
2024-03-26T03:33:20.874Z,100020.87
2024-03-26T03:34:26.330Z,100023.13
2024-03-26T03:35:31.728Z,100016.25
2024-03-26T03:36:37.118Z,100022.53
2024-03-26T03:37:42.518Z,100022.28
2024-03-26T03:38:49.019Z,100019.12
2024-03-26T03:39:54.476Z,100020.87
2024-03-26T03:40:59.887Z,100018.27
2024-03-26T03:42:05.466Z,100023.73
2024-03-26T03:43:11.043Z,100018.86
2024-03-26T03:44:16.497Z,100024.22
2024-03-26T03:45:21.895Z,100020.53
2024-03-26T03:46:27.361Z,100023.8
2024-03-26T03:47:32.753Z,100027.82
2024-03-26T03:48:38.150Z,100022.06
2024-03-26T03:49:43.560Z,100027.9
2024-03-26T03:50:49.034Z,100024.07
2024-03-26T03:51:54.475Z,100021.14
2024-03-26T03:52:59.867Z,100020.28
2024-03-26T03:54:05.431Z,100022.89
2024-03-26T03:55:13.900Z,100020.39
2024-03-26T03:56:19.296Z,100024.07
2024-03-26T03:57:24.727Z,100023.14
2024-03-26T03:58:30.172Z,100024.55
2024-03-26T03:59:35.578Z,100026.64
2024-03-26T04:00:40.990Z,100020.55
2024-03-26T04:01:46.379Z,100027.75
2024-03-26T04:02:51.808Z,100028.91
2024-03-26T04:03:57.246Z,100021.05
2024-03-26T04:05:02.664Z,100023.2
2024-03-26T04:06:08.112Z,100021.47
2024-03-26T04:07:13.530Z,100027.22
2024-03-26T04:08:18.921Z,100027.22
2024-03-26T04:09:24.309Z,100038.27
2024-03-26T04:10:29.746Z,100034.77
2024-03-26T04:11:35.193Z,100030.42
2024-03-26T04:12:40.652Z,100022.88
2024-03-26T04:13:46.107Z,100030.75
2024-03-26T04:14:51.549Z,100034.25
2024-03-26T04:15:56.915Z,100035.77
2024-03-26T04:17:02.316Z,100041.53
2024-03-26T04:18:07.787Z,100038.67
2024-03-26T04:19:13.218Z,100039.59
2024-03-26T04:20:18.642Z,100037.85
2024-03-26T04:21:24.034Z,100039.19
2024-03-26T04:22:29.510Z,100036.44
2024-03-26T04:23:35.019Z,100044.47
2024-03-26T04:24:40.419Z,100044.02
2024-03-26T04:25:45.805Z,100040.86
2024-03-26T04:26:51.280Z,100039
2024-03-26T04:27:56.696Z,100032.42
2024-03-26T04:29:02.104Z,100039.52
2024-03-26T04:30:07.528Z,100035.4
2024-03-26T04:31:12.947Z,100037.18
2024-03-26T04:32:18.386Z,100039.41
2024-03-26T04:33:23.826Z,100033.91
2024-03-26T04:34:29.216Z,100032.56
2024-03-26T04:35:34.691Z,100038.84
2024-03-26T04:36:40.086Z,100035.73
2024-03-26T04:37:45.495Z,100040.19
2024-03-26T04:38:50.937Z,100037.84
2024-03-26T04:39:56.396Z,100042.27
2024-03-26T04:41:01.833Z,100034.98
2024-03-26T04:42:08.233Z,100038.25
2024-03-26T04:43:13.627Z,100038.25
2024-03-26T04:44:20.037Z,100030.14
2024-03-26T04:45:25.480Z,100034.9
2024-03-26T04:46:30.906Z,100033.97
2024-03-26T04:47:36.347Z,100030.29
2024-03-26T04:48:41.729Z,100041.52
2024-03-26T04:49:47.133Z,100037.17
2024-03-26T04:50:52.577Z,100039.84
2024-03-26T04:51:58.064Z,100042.41
2024-03-26T04:53:03.521Z,100048.28
2024-03-26T04:54:08.958Z,100039.33
2024-03-26T04:55:14.346Z,100043.53
2024-03-26T04:56:19.760Z,100040.59
2024-03-26T04:57:25.178Z,100041.67
2024-03-26T04:58:30.567Z,100045.67
2024-03-26T04:59:35.959Z,100041.05
2024-03-26T05:00:41.375Z,100039.38
2024-03-26T05:01:46.800Z,100038.7
2024-03-26T05:02:52.287Z,100041.06
2024-03-26T05:03:57.737Z,100032.04
2024-03-26T05:05:03.162Z,100033.5
2024-03-26T05:06:08.557Z,100032.05
2024-03-26T05:07:14.066Z,100031.64
2024-03-26T05:08:19.499Z,100028.14
2024-03-26T05:09:24.898Z,100030.71
2024-03-26T05:10:30.286Z,100027.8
2024-03-26T05:11:35.700Z,100035.3
2024-03-26T05:12:41.151Z,100030.94
2024-03-26T05:13:46.560Z,100031.02
2024-03-26T05:14:51.998Z,100030.66
2024-03-26T05:15:57.579Z,100029.96
2024-03-26T05:17:02.962Z,100025.51
2024-03-26T05:18:08.401Z,100029.08
2024-03-26T05:19:16.080Z,100028.23
2024-03-26T05:20:21.537Z,100025.59
2024-03-26T05:21:26.962Z,100023.22
2024-03-26T05:22:32.399Z,100017.4
2024-03-26T05:23:37.826Z,100025.28
2024-03-26T05:24:43.235Z,100023.06
2024-03-26T05:25:48.644Z,100021.89
2024-03-26T05:26:54.070Z,100027.23
2024-03-26T05:27:59.603Z,100018.59
2024-03-26T05:29:05.001Z,100023.27
2024-03-26T05:30:10.440Z,100022.17
2024-03-26T05:31:18.141Z,100017.83
2024-03-26T05:32:23.553Z,100022.06
2024-03-26T05:33:28.966Z,100018.38
2024-03-26T05:34:34.398Z,100020.81
2024-03-26T05:35:39.797Z,100020.28
2024-03-26T05:36:45.167Z,100018.87
2024-03-26T05:37:50.587Z,100016.19
2024-03-26T05:38:56.159Z,100018.45
2024-03-26T05:40:01.610Z,100012.33
2024-03-26T05:41:07.015Z,100015.28
2024-03-26T05:42:12.437Z,100010.58
2024-03-26T05:43:17.882Z,100015.78
2024-03-26T05:44:23.308Z,100012.5
2024-03-26T05:45:28.780Z,100013.51
2024-03-26T05:46:34.190Z,100007.48
2024-03-26T05:47:39.623Z,100008.09
2024-03-26T05:48:45.019Z,100012.19
2024-03-26T05:49:50.411Z,100005.33
2024-03-26T05:50:55.822Z,100013.89
2024-03-26T05:52:01.226Z,100001.77
2024-03-26T05:53:06.623Z,99999.58
2024-03-26T05:54:12.043Z,99999.03
2024-03-26T05:55:17.433Z,100005.81
2024-03-26T05:56:22.866Z,100006.98
2024-03-26T05:57:28.296Z,99995.2
2024-03-26T05:58:33.703Z,100002.5
2024-03-26T05:59:39.086Z,99996.56
2024-03-26T06:00:44.516Z,100004.69
2024-03-26T06:01:49.904Z,100001.38
2024-03-26T06:02:55.398Z,100001.95
2024-03-26T06:04:03.943Z,100008.31
2024-03-26T06:05:09.368Z,100001.89
2024-03-26T06:06:14.804Z,100002.9
2024-03-26T06:07:20.292Z,99999.07
2024-03-26T06:08:25.739Z,100005.93
2024-03-26T06:09:31.181Z,100004.78
2024-03-26T06:10:36.615Z,99998.32
2024-03-26T06:11:42.453Z,100001.52
2024-03-26T06:12:47.879Z,100003.46
2024-03-26T06:13:53.253Z,100001.05
2024-03-26T06:14:58.675Z,100001.21
2024-03-26T06:16:04.067Z,100001.81
2024-03-26T06:17:09.463Z,100000.63
2024-03-26T06:18:14.900Z,99997.62
2024-03-26T06:19:20.320Z,99999.07
2024-03-26T06:20:25.704Z,99995.13
2024-03-26T06:21:31.152Z,100002.8
2024-03-26T06:22:36.533Z,100007.42
2024-03-26T06:23:41.955Z,100005.64
2024-03-26T06:24:47.461Z,100002.55
2024-03-26T06:25:52.898Z,99998.73
2024-03-26T06:26:58.329Z,100002.41
2024-03-26T06:28:03.748Z,100001.48
2024-03-26T06:29:09.237Z,99997.95
2024-03-26T06:30:14.636Z,100009.59
2024-03-26T06:31:20.029Z,99997.14
2024-03-26T06:32:25.449Z,100007.77
2024-03-26T06:33:32.892Z,100006.43
2024-03-26T06:34:38.648Z,100006.1
2024-03-26T06:35:44.022Z,100001.64
2024-03-26T06:36:49.400Z,100000.08
2024-03-26T06:37:54.835Z,100000.5
2024-03-26T06:39:00.227Z,100000.69
2024-03-26T06:40:05.617Z,100001.58
2024-03-26T06:41:11.073Z,99997.16
2024-03-26T06:42:16.483Z,100003.44
2024-03-26T06:43:21.934Z,100004.38
2024-03-26T06:44:27.330Z,100003.93
2024-03-26T06:45:32.740Z,100002.78
2024-03-26T06:46:40.506Z,100004.12
2024-03-26T06:47:45.921Z,99999.77
2024-03-26T06:48:51.309Z,100000.52
2024-03-26T06:49:56.713Z,100004.86
2024-03-26T06:51:02.107Z,100003.11
2024-03-26T06:52:07.534Z,99999.83
2024-03-26T06:53:12.929Z,100008.12
2024-03-26T06:54:18.339Z,100005.33
2024-03-26T06:55:23.789Z,100002.83
2024-03-26T06:56:29.181Z,100003.41
2024-03-26T06:57:34.570Z,99998.28
2024-03-26T06:58:39.957Z,100002.28
2024-03-26T06:59:45.483Z,99999.5
2024-03-26T07:00:50.848Z,99995.13
2024-03-26T07:01:56.370Z,99993.45
2024-03-26T07:03:01.753Z,99999.95
2024-03-26T07:04:07.179Z,99995.25
2024-03-26T07:05:12.581Z,99997.36
2024-03-26T07:06:17.946Z,99998.51
2024-03-26T07:07:23.335Z,99990.22
2024-03-26T07:08:28.686Z,99993.56
2024-03-26T07:09:34.244Z,99996.31
2024-03-26T07:10:39.668Z,99990.47
2024-03-26T07:11:45.144Z,99994.98
2024-03-26T07:12:50.549Z,99993.34
2024-03-26T07:13:56.629Z,99997.52
2024-03-26T07:15:02.099Z,99994.1
2024-03-26T07:16:07.497Z,99992.84
2024-03-26T07:17:12.883Z,99993.45
2024-03-26T07:18:18.261Z,99994.95
2024-03-26T07:19:23.670Z,99993.6
2024-03-26T07:20:29.098Z,99997.73
2024-03-26T07:21:34.592Z,99992.86
2024-03-26T07:22:39.970Z,99992.53
2024-03-26T07:23:45.399Z,99994.55
2024-03-26T07:24:50.763Z,99989.8
2024-03-26T07:25:56.179Z,99992.14
2024-03-26T07:27:01.553Z,99990.89
2024-03-26T07:28:06.928Z,99985.28
2024-03-26T07:29:12.312Z,99986.81
2024-03-26T07:30:17.725Z,99981.13
2024-03-26T07:31:23.132Z,99985.22
2024-03-26T07:32:28.505Z,99982.66
2024-03-26T07:33:33.895Z,99979.2
2024-03-26T07:34:39.364Z,99970.77
2024-03-26T07:35:44.718Z,99971.77
2024-03-26T07:36:50.118Z,99971.36
2024-03-26T07:37:55.577Z,99972.42
2024-03-26T07:39:01.009Z,99969.74
2024-03-26T07:40:06.483Z,99966.73
2024-03-26T07:41:11.934Z,99969.41
2024-03-26T07:42:19.869Z,99966.73
2024-03-26T07:43:25.868Z,99967.59
2024-03-26T07:44:31.327Z,99969
2024-03-26T07:45:36.712Z,99970.34
2024-03-26T07:46:42.074Z,99962.39
2024-03-26T07:47:47.550Z,99970.75
2024-03-26T07:48:52.927Z,99969.49
2024-03-26T07:49:58.494Z,99965.06
2024-03-26T07:51:04.041Z,99966.41
2024-03-26T07:52:09.551Z,99970.94
2024-03-26T07:53:15.068Z,99961.98
2024-03-26T07:54:20.485Z,99966
2024-03-26T07:55:26.053Z,99963.4
2024-03-26T07:56:31.517Z,99970.17
2024-03-26T07:57:37.011Z,99961.81
2024-03-26T07:58:42.564Z,99969.63
2024-03-26T07:59:48.148Z,99962.68
2024-03-26T08:00:53.682Z,99958.85
2024-03-26T08:02:01.291Z,99962.54
2024-03-26T08:03:06.760Z,99960.77
2024-03-26T08:04:12.222Z,99956.85
2024-03-26T08:05:17.603Z,99952.84
2024-03-26T08:06:23.150Z,99956
2024-03-26T08:07:28.552Z,99950.23
2024-03-26T08:08:34.025Z,99951.25
2024-03-26T08:09:39.599Z,99951
2024-03-26T08:10:47.264Z,99951
2024-03-26T08:11:53.069Z,99954.75
2024-03-26T08:12:58.560Z,99943.22
2024-03-26T08:14:03.954Z,99944.63
2024-03-26T08:15:09.405Z,99949.73
2024-03-26T08:16:14.783Z,99943.38
2024-03-26T08:17:20.399Z,99945.39
2024-03-26T08:18:25.849Z,99942.91
2024-03-26T08:19:32.604Z,99945.66
2024-03-26T08:20:38.640Z,99946.59
2024-03-26T08:21:44.068Z,99951.2
2024-03-26T08:22:49.530Z,99938.48
2024-03-26T08:23:55.032Z,99931.34
2024-03-26T08:25:00.443Z,99935.03
2024-03-26T08:26:06.084Z,99933.2
2024-03-26T08:27:11.841Z,99931.54
2024-03-26T08:28:17.515Z,99932.63
2024-03-26T08:29:23.283Z,99927.35
2024-03-26T08:30:28.715Z,99927.54
2024-03-26T08:31:34.247Z,99926.28
2024-03-26T08:32:39.983Z,99927.95
2024-03-26T08:33:45.520Z,99921.45
2024-03-26T08:34:50.879Z,99922.59
2024-03-26T08:35:56.308Z,99921.94
2024-03-26T08:37:01.894Z,99927.29
2024-03-26T08:38:09.499Z,99918.17
2024-03-26T08:39:14.859Z,99923.2
2024-03-26T08:40:20.248Z,99922.93
2024-03-26T08:41:25.622Z,99915.17
2024-03-26T08:42:30.996Z,99921.86
2024-03-26T08:43:36.535Z,99910.82
2024-03-26T08:44:41.915Z,99909.75
2024-03-26T08:45:47.290Z,99912.09
2024-03-26T08:46:52.672Z,99909.42
2024-03-26T08:47:58.180Z,99910.43
2024-03-26T08:49:05.855Z,99907.42
2024-03-26T08:50:11.258Z,99913.19
2024-03-26T08:51:16.641Z,99911.84
2024-03-26T08:52:22.053Z,99907.5
2024-03-26T08:53:27.448Z,99908.36
2024-03-26T08:54:32.825Z,99903
2024-03-26T08:55:38.224Z,99904.09
2024-03-26T08:56:43.655Z,99901.9
2024-03-26T08:57:49.044Z,99907.02
2024-03-26T08:58:54.410Z,99900.73
2024-03-26T08:59:59.811Z,99901.83
2024-03-26T09:01:05.236Z,99892.78
2024-03-26T09:02:10.648Z,99898.88
2024-03-26T09:03:16.025Z,99895.21
2024-03-26T09:04:23.880Z,99881.67
2024-03-26T09:05:31.172Z,99889.76
2024-03-26T09:06:36.537Z,99890.09
2024-03-26T09:07:41.951Z,99886.59
2024-03-26T09:08:47.320Z,99887.93
2024-03-26T09:09:52.691Z,99889.63
2024-03-26T09:10:58.060Z,99889.29
2024-03-26T09:12:03.485Z,99886.48
2024-03-26T12:10:50.477Z,99652.21
2024-03-26T12:11:55.834Z,99647.79
2024-03-26T12:13:01.336Z,99647.88
2024-03-26T12:14:06.748Z,99641.67
2024-03-26T12:15:12.108Z,99637.25
2024-03-26T12:16:21.611Z,99641.27
2024-03-26T12:17:27.048Z,99633.76
2024-03-26T12:18:32.427Z,99625.73
2024-03-26T12:19:37.817Z,99629.23
2024-03-26T12:20:43.227Z,99633.16
2024-03-26T12:21:48.768Z,99624.2
2024-03-26T12:22:54.123Z,99627.28
2024-03-26T12:23:59.530Z,99619.25
2024-03-26T12:25:04.969Z,99623.11
2024-03-26T12:26:10.390Z,99621.57
2024-03-26T12:27:15.888Z,99615.73
2024-03-26T12:28:21.321Z,99613.87
2024-03-26T12:29:26.697Z,99604.62
2024-03-26T12:30:32.092Z,99604.7
2024-03-26T12:31:37.737Z,99606.2
2024-03-26T12:32:43.096Z,99613.41
2024-03-26T12:33:49.226Z,99605.06
2024-03-26T12:34:54.687Z,99598.13
2024-03-26T12:36:00.051Z,99597.8
2024-03-26T12:37:05.457Z,99595.05
2024-03-26T12:38:10.846Z,99585.68
2024-03-26T12:39:16.215Z,99601.33
2024-03-26T12:40:22.614Z,99593.38
2024-03-26T12:41:27.992Z,99586.78
2024-03-26T12:42:33.358Z,99588.52
2024-03-26T12:43:38.733Z,99577.94
2024-03-26T12:44:44.112Z,99580.5
2024-03-26T12:45:49.530Z,99585.96
2024-03-26T12:46:54.956Z,99581.95
2024-03-26T12:48:00.386Z,99575.34
2024-03-26T12:49:05.791Z,99565.57
2024-03-26T12:50:11.171Z,99557.88
2024-03-26T12:51:16.558Z,99560.22
2024-03-26T12:52:21.940Z,99577.17
2024-03-26T12:53:27.360Z,99566.47
2024-03-26T12:54:32.770Z,99563.39
2024-03-26T12:55:38.156Z,99554.02
2024-03-26T12:56:43.538Z,99558.31
2024-03-26T12:57:48.957Z,99546.77
2024-03-26T12:58:54.299Z,99546.64
2024-03-26T12:59:59.667Z,99537.33
2024-03-26T13:01:05.053Z,99538.82
2024-03-26T13:02:10.586Z,99534.52
2024-03-26T13:03:15.935Z,99515.43
2024-03-26T13:04:21.346Z,99535.73
2024-03-26T13:05:26.767Z,99538.63
2024-03-26T13:06:32.133Z,99538.38
2024-03-26T13:07:37.485Z,99523.54
2024-03-26T13:08:42.869Z,99532.82
2024-03-26T13:09:48.290Z,99523.7
2024-03-26T13:10:53.709Z,99528.44
2024-03-26T13:11:59.118Z,99532.69
2024-03-26T13:13:04.455Z,99528.27
2024-03-26T13:14:09.858Z,99528.16
2024-03-26T13:15:15.287Z,99530.66
2024-03-26T13:16:20.708Z,99522.95
2024-03-26T13:17:26.174Z,99522.84
2024-03-26T13:18:31.667Z,99523.28
2024-03-26T13:19:37.107Z,99526.86
2024-03-26T13:20:42.517Z,99517.41
2024-03-26T13:21:47.911Z,99519.59
2024-03-26T13:22:53.288Z,99515.45
2024-03-26T13:23:58.672Z,99506.09
2024-03-26T13:25:04.141Z,99499.84
2024-03-26T13:26:09.539Z,99496.55
2024-03-26T13:27:14.899Z,99492.95
2024-03-26T13:28:20.318Z,99499.03
2024-03-26T13:29:25.739Z,99489.34
2024-03-26T13:30:45.319Z,99496.19
2024-03-26T13:31:51.121Z,99490.95
2024-03-26T13:32:56.490Z,99489.13
2024-03-26T13:34:01.889Z,99491.59
2024-03-26T13:35:07.274Z,99490.58
2024-03-26T13:36:12.741Z,99484.86
2024-03-26T13:37:18.499Z,99482
2024-03-26T13:38:24.029Z,99482.21
2024-03-26T13:39:29.388Z,99470.48
2024-03-26T13:40:53.567Z,99487.63
2024-03-26T13:42:04.821Z,99488.53
2024-03-26T13:43:10.292Z,99487.19
2024-03-26T13:44:15.716Z,99482.08
2024-03-26T13:45:21.092Z,99483.73
2024-03-26T13:46:26.835Z,99471.34
2024-03-26T13:47:32.289Z,99471.58
2024-03-26T13:48:37.876Z,99461.1
2024-03-26T13:49:43.340Z,99470.56
2024-03-26T13:50:48.970Z,99470.59
2024-03-26T13:51:54.488Z,99470.62
2024-03-26T13:52:59.960Z,99465.18
2024-03-26T13:54:05.422Z,99467.77
2024-03-26T13:55:10.926Z,99460.96
2024-03-26T13:56:16.301Z,99464.28
2024-03-26T13:57:21.700Z,99472.75
2024-03-26T13:58:27.116Z,99471.09
2024-03-26T13:59:32.642Z,99462.04
2024-03-26T14:00:38.052Z,99471.73
2024-03-26T14:01:43.513Z,99457
2024-03-26T14:02:48.896Z,99458.72
2024-03-26T14:03:54.348Z,99460.64
2024-03-26T14:04:59.963Z,99447.05
2024-03-26T14:06:05.459Z,99447.13
2024-03-26T14:07:10.826Z,99434.76
2024-03-26T14:08:17.676Z,99435.78
2024-03-26T14:09:26.307Z,99429.08
2024-03-26T14:10:31.776Z,99426.32
2024-03-26T14:11:37.183Z,99427.22
2024-03-26T14:12:42.594Z,99410.02
2024-03-26T14:13:50.573Z,99423.2
2024-03-26T14:14:55.957Z,99424.37
2024-03-26T14:16:01.409Z,99422.02
2024-03-26T14:17:06.802Z,99417.06
2024-03-26T14:18:12.178Z,99407.2
2024-03-26T14:19:17.595Z,99404.4
2024-03-26T14:20:22.999Z,99407.52
2024-03-26T14:21:28.390Z,99407.08
2024-03-26T14:22:33.799Z,99417.3
2024-03-26T14:23:39.157Z,99412.75
2024-03-26T14:24:44.567Z,99412.26
2024-03-26T14:25:50.009Z,99401.63
2024-03-26T14:26:55.362Z,99402.16
2024-03-26T14:28:00.751Z,99406.58
2024-03-26T14:29:06.251Z,99399.48
2024-03-26T14:30:11.668Z,99402.16
2024-03-26T14:31:17.063Z,99394.13
2024-03-26T14:32:22.435Z,99389.67
2024-03-26T14:33:27.836Z,99389.98
2024-03-26T14:34:33.217Z,99396.69
2024-03-26T14:35:40.821Z,99388.65
2024-03-26T14:36:46.203Z,99386.91
2024-03-26T14:37:51.663Z,99388.77
2024-03-26T14:38:57.042Z,99387.75
2024-03-26T14:40:02.462Z,99394.94
2024-03-26T14:41:07.907Z,99385.16
2024-03-26T14:42:13.386Z,99381.46
2024-03-26T14:43:18.819Z,99372.58
2024-03-26T14:44:24.186Z,99375.7
2024-03-26T14:45:29.574Z,99372.58
2024-03-26T14:46:35.038Z,99359.63
2024-03-26T14:47:40.469Z,99373.92
2024-03-26T14:48:45.878Z,99365.48
2024-03-26T14:49:51.314Z,99368.56
2024-03-26T14:50:56.732Z,99353.34
2024-03-26T14:52:02.072Z,99351.91
2024-03-26T14:53:07.475Z,99347.98
2024-03-26T14:54:12.935Z,99354.68
2024-03-26T14:55:18.328Z,99351.47
2024-03-26T14:56:23.717Z,99348.8
2024-03-26T14:57:29.118Z,99349.23
2024-03-26T14:58:34.478Z,99343.56
2024-03-26T14:59:39.974Z,99340.45
2024-03-26T15:00:45.457Z,99332.94
2024-03-26T15:01:50.862Z,99339.11
2024-03-26T15:02:56.307Z,99341.47
2024-03-26T15:04:01.722Z,99333.02
2024-03-26T15:05:07.139Z,99329.73
2024-03-26T15:06:12.561Z,99327.17
2024-03-26T15:07:19.001Z,99331.19
2024-03-26T15:08:24.375Z,99334.68
2024-03-26T15:09:29.776Z,99328.39
2024-03-26T15:10:35.185Z,99325.3
2024-03-26T15:11:40.606Z,99320.27
2024-03-26T15:12:46.047Z,99315.44
2024-03-26T15:13:51.425Z,99313.25
2024-03-26T15:14:56.825Z,99307.58
2024-03-26T15:16:16.535Z,99310.78
2024-03-26T15:17:21.952Z,99310.34
2024-03-26T15:18:27.320Z,99315.59
2024-03-26T15:19:32.724Z,99297.89
2024-03-26T15:20:38.185Z,99299.39
2024-03-26T15:21:43.576Z,99298.5
2024-03-26T15:22:48.972Z,99296.58
2024-03-26T15:23:54.371Z,99297.27
2024-03-26T15:24:59.736Z,99298.78
2024-03-26T15:26:07.385Z,99294.53
2024-03-26T15:27:12.796Z,99300.19
2024-03-26T15:28:20.667Z,99292.45
2024-03-26T15:29:26.016Z,99290.58
2024-03-26T15:30:31.402Z,99292.94
2024-03-26T15:31:36.804Z,99290.7
2024-03-26T15:32:42.234Z,99290.41
2024-03-26T15:33:47.628Z,99285.55
2024-03-26T15:34:54.081Z,99290.49
2024-03-26T15:35:59.450Z,99286.07
2024-03-26T15:37:04.898Z,99290.09
2024-03-26T15:38:14.658Z,99284.81
2024-03-26T15:39:22.673Z,99287.27